Time;durP1;ratioP1;P1;durP2;ratioP2;P2;SDS_P1;SDS_P2;PMS_P1;PMS_P2;Temp;Humidity;BMP_temperature;BMP_pressure;BME280_temperature;BME280_humidity;BME280_pressure;Samples;Min_cycle;Max_cycle;Signal;HPM_P1;HPM_P2
2021/08/06 04:57:22;;;;;;;12.82;5.50;;;;;;;20.08;100.00;97195.57;1702553;80;945062;-53
2021/08/06 04:59:50;;;;;;;12.23;6.25;;;;;;;20.21;100.00;97201.91;1732093;82;21032;-53
2021/08/06 05:02:18;;;;;;;13.20;6.70;;;;;;;20.43;100.00;97204.48;1706749;83;21050;-51
2021/08/06 05:04:46;;;;;;;11.63;5.85;;;;;;;20.67;100.00;97198.17;1727416;82;21080;-55
2021/08/06 05:07:17;;;;;;;11.45;5.70;;;;;;;20.90;100.00;97198.83;1748691;81;21056;-53
2021/08/06 05:09:46;;;;;;;14.27;5.97;;;;;;;21.11;100.00;97200.89;1737756;81;21493;-55
2021/08/06 05:12:15;;;;;;;14.75;5.70;;;;;;;21.27;100.00;97197.15;1741464;81;21445;-55
2021/08/06 05:14:45;;;;;;;13.00;6.42;;;;;;;21.39;100.00;97202.67;1742981;81;21022;-54
2021/08/06 05:17:14;;;;;;;14.58;6.25;;;;;;;21.44;100.00;97200.62;1762531;81;22238;-51
2021/08/06 05:19:43;;;;;;;9.65;5.70;;;;;;;21.47;100.00;97213.95;1764416;81;21490;-55
2021/08/06 05:22:11;;;;;;;15.55;6.58;;;;;;;21.51;100.00;97209.54;1765384;80;21071;-54
2021/08/06 05:24:39;;;;;;;13.98;6.35;;;;;;;21.64;100.00;97211.80;1768294;81;21054;-54
2021/08/06 05:27:09;;;;;;;15.20;6.28;;;;;;;21.76;98.72;97214.59;1764658;81;20983;-54
2021/08/06 05:29:37;;;;;;;13.45;5.92;;;;;;;21.85;97.92;97217.23;1767640;81;21019;-53
2021/08/06 05:32:06;;;;;;;14.43;5.65;;;;;;;21.85;95.82;97223.95;1762393;81;21027;-52
2021/08/06 05:34:34;;;;;;;13.70;5.87;;;;;;;21.85;96.72;97230.12;1749646;81;21573;-56
2021/08/06 05:55:10;;;;;;;10.88;5.25;;;;;;;24.70;79.50;97244.25;1774992;80;23076;-58
2021/08/06 05:57:39;;;;;;;10.10;5.33;;;;;;;24.70;76.35;97246.38;1748842;80;21066;-60
2021/08/06 06:00:08;;;;;;;12.60;5.40;;;;;;;24.87;74.68;97253.44;1769695;80;21152;-58
2021/08/06 06:02:38;;;;;;;12.00;5.97;;;;;;;25.07;73.58;97247.70;1799091;80;21022;-58
2021/08/06 06:05:09;;;;;;;12.80;5.28;;;;;;;25.35;72.83;97238.30;1799568;80;20987;-56
2021/08/06 06:07:48;;;;;;;11.80;5.85;;;;;;;25.37;71.09;97223.89;1800033;80;20991;-56
2021/08/06 06:10:21;;;;;;;13.80;5.50;;;;;;;25.16;71.53;97228.91;1785649;79;21101;-56
2021/08/06 06:12:49;;;;;;;8.28;5.22;;;;;;;25.10;72.07;97225.44;1802944;79;21046;-57
2021/08/06 06:15:19;;;;;;;14.40;6.17;;;;;;;25.10;72.19;97223.53;1774976;79;21212;-55
2021/08/06 06:17:47;;;;;;;16.25;5.40;;;;;;;25.14;71.71;97228.47;1767812;79;21110;-55
2021/08/06 06:20:16;;;;;;;15.72;5.30;;;;;;;25.01;71.97;97230.95;1792701;79;21010;-56
2021/08/06 06:22:44;;;;;;;14.25;6.10;;;;;;;24.96;73.29;97233.11;1796594;79;21061;-56
2021/08/06 06:25:13;;;;;;;13.18;5.10;;;;;;;25.03;72.67;97242.17;1797805;79;20952;-56
2021/08/06 06:27:55;;;;;;;13.20;5.20;;;;;;;25.07;72.59;97240.41;1761113;79;21011;-54
2021/08/06 06:30:27;;;;;;;11.38;5.28;;;;;;;25.04;71.76;97245.65;1756367;79;20976;-49
2021/08/06 06:32:56;;;;;;;14.73;5.78;;;;;;;24.97;71.63;97250.84;1796444;79;20986;-62
2021/08/06 06:35:25;;;;;;;9.90;5.28;;;;;;;24.93;72.00;97249.37;1800593;80;21498;-55
2021/08/06 06:37:55;;;;;;;8.55;4.87;;;;;;;24.92;72.05;97247.03;1800458;80;20967;-53
2021/08/06 06:40:25;;;;;;;11.93;5.22;;;;;;;24.91;71.30;97250.29;1799993;78;21058;-55
2021/08/06 06:42:54;;;;;;;11.15;4.85;;;;;;;25.02;72.35;97253.30;1795681;80;21038;-58
2021/08/06 06:45:24;;;;;;;12.13;5.28;;;;;;;25.21;70.83;97250.02;1791490;79;20966;-56
2021/08/06 06:47:53;;;;;;;12.07;5.70;;;;;;;25.35;69.56;97241.77;1783016;80;21458;-55
2021/08/06 06:50:24;;;;;;;17.90;7.40;;;;;;;25.37;69.12;97243.55;1783507;80;21037;-56
2021/08/06 06:52:53;;;;;;;13.53;5.80;;;;;;;25.40;69.54;97249.63;1757638;81;21016;-57
2021/08/06 06:55:22;;;;;;;15.30;5.53;;;;;;;25.42;68.28;97234.44;1725489;82;21017;-57
2021/08/06 06:57:58;;;;;;;16.60;5.97;;;;;;;25.38;68.66;97237.03;1672649;84;21494;-62
2021/08/06 07:00:31;;;;;;;13.15;5.65;;;;;;;25.36;68.34;97252.78;1674887;84;21056;-60
2021/08/06 07:03:01;;;;;;;11.53;5.40;;;;;;;25.28;68.67;97251.56;1728020;83;21088;-59
2021/08/06 07:05:30;;;;;;;12.53;5.90;;;;;;;25.20;68.97;97257.32;1720511;82;21031;-60
2021/08/06 07:08:00;;;;;;;12.93;5.40;;;;;;;25.09;69.58;97249.48;1713785;83;20980;-57
2021/08/06 07:10:27;;;;;;;14.30;5.90;;;;;;;25.02;70.49;97254.09;1733990;83;20998;-59
2021/08/06 07:12:58;;;;;;;11.80;5.80;;;;;;;25.01;70.48;97252.52;1794878;80;21525;-56
2021/08/06 07:15:26;;;;;;;13.03;5.85;;;;;;;24.95;70.84;97247.71;1756727;81;21022;-59
2021/08/06 07:17:54;;;;;;;11.55;5.90;;;;;;;24.97;70.76;97250.27;1706107;83;21034;-57
2021/08/06 07:20:22;;;;;;;17.10;6.08;;;;;;;25.02;70.78;97259.48;1708463;83;21450;-55
2021/08/06 07:22:55;;;;;;;16.05;6.30;;;;;;;25.08;69.76;97263.53;1726942;83;21548;-58
2021/08/06 07:25:24;;;;;;;15.85;5.72;;;;;;;25.14;69.40;97264.08;1759714;81;20990;-57
2021/08/06 07:27:52;;;;;;;12.53;5.95;;;;;;;25.22;69.17;97268.54;1757300;81;21071;-59
2021/08/06 07:30:20;;;;;;;10.30;5.55;;;;;;;25.33;68.56;97264.80;1748610;81;20943;-57
2021/08/06 07:32:49;;;;;;;12.43;5.30;;;;;;;25.21;68.29;97260.23;1771092;81;21515;-56
2021/08/06 07:35:18;;;;;;;15.35;5.87;;;;;;;25.13;69.20;97259.25;1750965;81;21020;-56
2021/08/06 07:37:47;;;;;;;12.82;5.90;;;;;;;25.03;69.15;97258.91;1755785;82;21011;-56
2021/08/06 07:40:15;;;;;;;18.32;6.53;;;;;;;24.97;69.76;97264.31;1729847;82;21155;-56
2021/08/06 07:42:43;;;;;;;20.02;6.50;;;;;;;24.97;70.09;97265.09;1757004;82;21034;-54
2021/08/06 07:45:14;;;;;;;13.03;6.00;;;;;;;25.00;70.20;97265.75;1757407;82;21145;-58
2021/08/06 07:47:42;;;;;;;12.63;5.45;;;;;;;25.03;69.70;97264.30;1728902;82;21011;-56
2021/08/06 07:50:12;;;;;;;12.15;5.65;;;;;;;25.16;69.75;97264.52;1740471;82;21117;-52
2021/08/06 07:52:40;;;;;;;13.70;5.28;;;;;;;25.37;69.42;97261.65;1794643;80;21050;-55
2021/08/06 07:55:10;;;;;;;8.58;5.17;;;;;;;25.58;68.16;97265.52;1794742;80;21086;-57
2021/08/06 07:57:40;;;;;;;14.60;6.28;;;;;;;25.73;67.61;97271.49;1792575;79;22407;-56
2021/08/06 08:00:10;;;;;;;10.95;5.75;;;;;;;25.84;66.72;97275.86;1791369;80;21541;-55
2021/08/06 08:02:39;;;;;;;12.63;5.67;;;;;;;25.90;65.84;97269.08;1763583;80;21122;-55
2021/08/06 08:05:09;;;;;;;12.50;5.47;;;;;;;25.88;65.34;97271.34;1711224;83;21020;-53
2021/08/06 08:07:39;;;;;;;17.10;6.30;;;;;;;25.82;65.46;97265.98;1716160;82;21034;-59
2021/08/06 08:10:08;;;;;;;15.10;6.33;;;;;;;25.77;65.96;97262.19;1745388;81;21070;-61
2021/08/06 08:12:38;;;;;;;11.88;5.95;;;;;;;25.71;66.20;97252.73;1743308;82;21083;-58
2021/08/06 08:15:07;;;;;;;15.80;6.75;;;;;;;25.63;65.88;97242.30;1794649;79;21038;-59
2021/08/06 08:17:36;;;;;;;12.35;5.85;;;;;;;25.55;66.63;97247.30;1768355;80;20967;-54
2021/08/06 08:20:05;;;;;;;14.20;5.85;;;;;;;25.51;66.77;97254.50;1791985;80;20947;-59
2021/08/06 08:22:34;;;;;;;14.30;5.47;;;;;;;25.49;67.47;97266.22;1788515;79;20973;-62
2021/08/06 08:25:04;;;;;;;13.25;6.03;;;;;;;25.46;67.76;97260.14;1784052;80;20983;-64
2021/08/06 08:31:35;;;;;;;12.05;5.50;;;;;;;25.51;67.35;97274.73;1792648;80;20485;-56
2021/08/06 08:34:08;;;;;;;15.00;5.70;;;;;;;25.60;67.58;97294.27;1748354;79;20934;-56
2021/08/06 08:36:38;;;;;;;13.30;5.33;;;;;;;25.74;68.00;97284.45;1781893;80;21525;-56
2021/08/06 08:39:12;;;;;;;13.98;6.03;;;;;;;25.87;68.10;97288.11;1771457;80;21488;-56
2021/08/06 08:41:44;;;;;;;12.35;5.53;;;;;;;25.99;66.17;97296.70;1762056;81;21078;-56
2021/08/06 08:44:24;;;;;;;13.40;5.70;;;;;;;26.06;65.50;97305.55;1770274;80;21558;-56
2021/08/06 08:46:58;;;;;;;10.60;5.00;;;;;;;26.13;65.89;97317.31;1736228;81;21015;-57
2021/08/06 08:49:30;;;;;;;14.55;5.50;;;;;;;26.27;64.95;97325.58;1763430;81;21010;-56
2021/08/06 08:52:04;;;;;;;10.08;5.50;;;;;;;26.30;64.48;97317.55;1775392;80;21022;-58
2021/08/06 08:54:34;;;;;;;14.07;5.65;;;;;;;26.32;64.31;97311.78;1782153;80;21081;-56
2021/08/06 08:57:08;;;;;;;10.65;5.22;;;;;;;26.37;64.07;97313.66;1757101;80;20955;-57
2021/08/06 08:59:42;;;;;;;10.85;4.95;;;;;;;26.41;63.37;97312.44;1771430;79;20994;-56
2021/08/06 09:02:15;;;;;;;13.83;5.70;;;;;;;26.45;62.29;97322.20;1782060;80;21451;-58
2021/08/06 09:04:48;;;;;;;11.80;5.42;;;;;;;26.51;62.57;97328.70;1787626;80;21093;-60
2021/08/06 09:07:30;;;;;;;8.90;5.03;;;;;;;26.62;62.60;97333.80;1779840;80;21178;-55
2021/08/06 09:10:25;;;;;;;15.10;5.00;;;;;;;26.84;62.61;97332.36;1782685;80;21023;-56
2021/08/06 09:13:18;;;;;;;13.80;5.55;;;;;;;27.02;61.67;97324.12;1781302;80;21489;-57
2021/08/06 09:15:58;;;;;;;16.25;5.60;;;;;;;27.13;61.55;97316.27;1781783;80;21073;-55
2021/08/06 09:18:34;;;;;;;16.50;9.00;;;;;;;27.23;60.84;97317.05;1791404;80;21513;-62
2021/08/06 09:21:26;;;;;;;17.52;11.73;;;;;;;27.13;60.12;97298.69;1794938;80;21007;-55
2021/08/06 09:24:05;;;;;;;23.73;12.35;;;;;;;26.95;60.41;97292.30;1775637;79;21509;-56
2021/08/06 09:26:42;;;;;;;20.75;10.88;;;;;;;26.83;61.56;97292.95;1792086;80;21517;-58
2021/08/06 09:29:20;;;;;;;18.75;10.18;;;;;;;26.75;62.61;97279.86;1788898;80;21042;-56
2021/08/06 09:32:01;;;;;;;17.87;10.28;;;;;;;26.70;62.97;97272.80;1780091;80;20994;-59
2021/08/06 09:34:41;;;;;;;20.32;11.57;;;;;;;26.69;62.30;97267.18;1782340;80;21010;-58
2021/08/06 09:37:22;;;;;;;20.82;12.00;;;;;;;26.69;62.54;97277.21;1788935;80;20994;-58
2021/08/06 09:39:55;;;;;;;12.88;7.05;;;;;;;26.71;63.11;97269.52;1781159;80;21552;-57
2021/08/06 09:42:35;;;;;;;13.13;5.85;;;;;;;26.75;62.04;97267.70;1778638;80;21482;-59
2021/08/06 09:45:13;;;;;;;8.68;5.17;;;;;;;26.79;62.01;97277.25;1740837;80;21467;-56
2021/08/06 09:47:46;;;;;;;12.05;5.87;;;;;;;26.79;61.99;97286.70;1776492;79;21019;-57
2021/08/06 09:50:21;;;;;;;10.85;5.50;;;;;;;26.69;61.42;97286.10;1775132;80;21014;-57
2021/08/06 09:52:52;;;;;;;10.75;5.30;;;;;;;26.64;61.80;97290.98;1777268;80;21531;-60
2021/08/06 09:55:37;;;;;;;9.88;5.03;;;;;;;26.68;61.96;97288.59;1767242;80;21565;-56
2021/08/06 09:58:23;;;;;;;9.43;5.35;;;;;;;26.76;61.45;97288.18;1781600;80;21026;-58
2021/08/06 10:00:55;;;;;;;9.45;5.97;;;;;;;26.76;61.41;97277.37;1784405;79;21050;-58
2021/08/06 10:03:35;;;;;;;12.88;7.25;;;;;;;26.69;60.97;97274.51;1787053;80;21025;-58
2021/08/06 10:06:19;;;;;;;10.53;6.00;;;;;;;26.62;61.68;97268.95;1790251;80;21006;-56
2021/08/06 10:08:54;;;;;;;10.30;5.47;;;;;;;26.65;61.49;97248.75;1772446;80;21509;-55
2021/08/06 10:11:28;;;;;;;13.48;5.78;;;;;;;26.70;61.46;97251.17;1788583;79;21015;-59
2021/08/06 10:13:59;;;;;;;10.55;5.50;;;;;;;26.68;61.10;97246.70;1721548;83;21510;-57
2021/08/06 10:16:31;;;;;;;10.25;5.10;;;;;;;26.63;60.74;97246.19;1750283;81;21403;-56
2021/08/06 10:19:11;;;;;;;11.95;5.28;;;;;;;26.63;61.13;97251.02;1710628;82;21050;-58
2021/08/06 10:21:43;;;;;;;12.30;5.83;;;;;;;26.61;62.11;97257.90;1737730;82;21050;-57
2021/08/06 10:24:17;;;;;;;13.03;5.20;;;;;;;26.53;62.41;97263.72;1731186;82;21007;-55
2021/08/06 10:26:49;;;;;;;13.80;5.85;;;;;;;26.51;62.45;97254.41;1734350;82;21087;-57
2021/08/06 10:29:27;;;;;;;12.88;5.55;;;;;;;26.52;62.68;97247.30;1685614;82;21034;-54
2021/08/06 10:32:16;;;;;;;11.22;5.37;;;;;;;26.45;62.55;97247.13;1726623;82;21023;-56
2021/08/06 10:35:09;;;;;;;10.88;5.28;;;;;;;26.35;63.16;97238.95;1738439;82;20996;-57
2021/08/06 10:38:00;;;;;;;11.55;5.05;;;;;;;26.28;62.23;97248.81;1737733;82;22281;-58
2021/08/06 10:40:41;;;;;;;11.57;4.95;;;;;;;26.15;62.24;97239.45;1735148;82;21088;-58
2021/08/06 10:43:20;;;;;;;11.80;6.17;;;;;;;26.03;63.08;97237.38;1742096;82;21549;-57
2021/08/06 10:45:56;;;;;;;8.90;4.97;;;;;;;25.94;63.86;97227.55;1741921;82;21034;-57
2021/08/06 10:48:41;;;;;;;11.85;5.50;;;;;;;25.91;63.31;97226.09;1740273;82;21510;-57
2021/08/06 10:51:32;;;;;;;9.55;4.72;;;;;;;25.94;62.91;97226.20;1733032;82;21040;-57
2021/08/06 10:54:10;;;;;;;13.55;5.15;;;;;;;26.01;62.69;97219.41;1741909;82;21028;-56
2021/08/06 10:56:39;;;;;;;10.65;5.22;;;;;;;26.00;63.62;97215.92;1739243;82;21015;-57
2021/08/06 10:59:14;;;;;;;8.13;6.03;;;;;;;25.96;64.61;97220.45;1727446;82;21018;-57
2021/08/06 11:01:48;;;;;;;12.50;6.12;;;;;;;25.90;64.90;97206.99;1727288;82;21073;-57
2021/08/06 11:04:22;;;;;;;14.90;5.85;;;;;;;25.86;64.96;97208.81;1730501;82;21481;-56
2021/08/06 11:06:54;;;;;;;11.20;5.58;;;;;;;25.84;65.23;97208.38;1728345;82;21054;-55
2021/08/06 11:09:35;;;;;;;9.35;5.15;;;;;;;25.80;64.80;97212.33;1730517;82;21051;-56
2021/08/06 11:12:10;;;;;;;14.53;5.50;;;;;;;25.72;64.47;97208.44;1743235;81;20995;-63
2021/08/06 11:14:48;;;;;;;10.68;5.20;;;;;;;25.69;64.55;97216.64;1727280;82;21476;-56
2021/08/06 11:17:47;;;;;;;13.22;5.92;;;;;;;25.73;64.39;97210.77;1780960;79;21006;-55
2021/08/06 11:20:19;;;;;;;8.38;5.25;;;;;;;25.76;64.93;97201.25;1794758;80;20987;-58
2021/08/06 11:22:49;;;;;;;13.50;5.90;;;;;;;25.76;64.56;97210.70;1794384;80;21034;-56
2021/08/06 11:25:27;;;;;;;14.45;5.72;;;;;;;25.80;64.44;97223.69;1796795;79;21091;-56
2021/08/06 11:27:59;;;;;;;11.03;5.75;;;;;;;25.85;64.16;97230.97;1768189;79;20994;-56
2021/08/06 11:30:29;;;;;;;13.40;6.15;;;;;;;25.89;63.58;97235.91;1781414;79;21487;-57
2021/08/06 11:33:03;;;;;;;15.08;6.58;;;;;;;25.87;63.59;97236.05;1791679;79;20991;-57
2021/08/06 11:35:37;;;;;;;14.78;7.00;;;;;;;25.86;64.01;97243.36;1795370;80;21031;-61
2021/08/06 11:38:16;;;;;;;12.20;5.80;;;;;;;25.94;64.52;97242.97;1786939;79;21050;-55
2021/08/06 11:40:46;;;;;;;13.38;6.83;;;;;;;26.03;63.62;97246.27;1727930;83;21137;-58
2021/08/06 11:43:21;;;;;;;17.95;8.63;;;;;;;26.07;63.18;97243.66;1733766;83;20967;-53
2021/08/06 11:45:51;;;;;;;21.85;12.68;;;;;;;26.11;63.23;97240.50;1775732;80;21494;-54
2021/08/06 11:48:19;;;;;;;16.40;9.10;;;;;;;26.13;63.27;97236.30;1763589;81;21128;-52
2021/08/06 11:50:55;;;;;;;17.10;8.23;;;;;;;26.20;62.66;97234.34;1780899;79;21010;-54
2021/08/06 11:53:26;;;;;;;15.23;7.25;;;;;;;26.16;63.27;97236.19;1790608;80;20987;-54
2021/08/06 11:55:57;;;;;;;20.43;7.22;;;;;;;26.15;63.94;97231.36;1795063;80;20979;-54
2021/08/06 11:58:36;;;;;;;14.30;5.78;;;;;;;26.18;63.42;97233.34;1786803;80;21470;-55
2021/08/06 12:01:05;;;;;;;14.43;6.15;;;;;;;26.17;63.24;97229.08;1795133;79;21024;-53
2021/08/06 12:03:47;;;;;;;14.75;6.70;;;;;;;26.13;63.58;97234.17;1795110;80;20991;-47
2021/08/06 12:06:18;;;;;;;10.32;5.83;;;;;;;26.14;63.34;97233.03;1791428;80;20995;-51
2021/08/06 12:08:50;;;;;;;10.95;5.70;;;;;;;26.21;63.20;97245.38;1793964;80;20978;-47
2021/08/06 12:11:21;;;;;;;13.30;5.70;;;;;;;26.36;62.92;97228.94;1794269;80;21073;-45
2021/08/06 12:13:58;;;;;;;12.40;5.72;;;;;;;26.52;62.33;97233.00;1788688;80;21482;-45
2021/08/06 12:16:34;;;;;;;12.10;5.80;;;;;;;26.63;61.99;97239.44;1792763;80;21514;-47
2021/08/06 12:19:02;;;;;;;11.20;5.72;;;;;;;26.74;62.19;97249.34;1793755;80;20999;-47
2021/08/06 12:21:39;;;;;;;12.93;6.17;;;;;;;26.83;61.81;97253.19;1795220;80;21078;-46
2021/08/06 12:24:12;;;;;;;12.07;5.67;;;;;;;26.91;61.77;97258.20;1789482;80;21522;-47
2021/08/06 12:26:46;;;;;;;9.25;4.95;;;;;;;27.02;60.89;97248.97;1740909;81;20980;-49
2021/08/06 12:29:20;;;;;;;12.03;5.60;;;;;;;27.12;60.44;97255.97;1718477;83;20952;-46
2021/08/06 12:32:10;;;;;;;10.75;5.20;;;;;;;27.21;60.11;97261.19;1715401;83;21032;-46
2021/08/06 12:34:42;;;;;;;9.70;4.22;;;;;;;27.25;59.78;97268.23;1718308;83;21454;-45
2021/08/06 12:37:12;;;;;;;6.87;3.80;;;;;;;27.10;58.52;97270.42;1702775;83;21086;-48
2021/08/06 12:39:53;;;;;;;9.13;4.35;;;;;;;26.79;58.53;97271.27;1759210;81;21046;-47
2021/08/06 12:42:26;;;;;;;6.72;3.77;;;;;;;26.36;59.64;97279.69;1763135;81;21017;-51
2021/08/06 12:44:56;;;;;;;10.80;3.90;;;;;;;25.93;61.46;97286.72;1739877;81;21018;-48
2021/08/06 12:47:23;;;;;;;7.05;3.55;;;;;;;25.68;62.79;97283.88;1763359;81;20975;-46
2021/08/06 12:50:01;;;;;;;7.80;3.70;;;;;;;25.53;62.94;97282.72;1761764;81;21027;-46
2021/08/06 12:52:35;;;;;;;8.58;3.52;;;;;;;25.40;63.60;97270.39;1757843;82;21550;-47
2021/08/06 12:55:12;;;;;;;7.78;3.90;;;;;;;25.31;63.90;97265.72;1755259;81;21526;-47
2021/08/06 12:58:18;;;;;;;8.70;4.15;;;;;;;25.26;64.33;97255.17;1727845;83;21558;-51
